Glasgow, West Virginia
Current Conditions -  °F | °C
As of 4:54 PM on Saturday 25 Oct 2014 (Local Time) from KCRW Reporting Station
Overcast Overcast  
Wind Chill: 66°   Ceiling: 3000
Heat Index: 66°   Visibility: 10mi
Dew Point: 48°   Wind: 10mph
Humidity: 52%   Direction: 220°SW
Pressure: 29.91"   Gusts: NA
Location:  38.22°N, 81.42°W
Report Text: KCRW 252054Z 22009KT 10SM OVC030 19/09 A2991 RMK AO2 SLP129 OVC V BKN T01890089 56021 $
Loading
Personal Weather Stations






























Interactive Weather Map
Tropical Storm Tracking
New forecast layout! Learn more

10-Day Weather Forecast

Advertisements
Track Severe Weather on mobile